Anda di halaman 1dari 2

SAID33 WAHS 020030

METAR WAHS 020030Z 16002KT 7000 FEW014 27/23 Q1009=

SAID33 WAHS 020000


METAR WAHS 020000Z VRB02KT 7000 FEW014 26/23 Q1009=

SAID33 WAHS 012330


METAR WAHS 012330Z 18003KT 120V210 6000 FEW013CB SCT014 25/22 Q1009 RMK CB
TO NW AND N=

SAID33 WAHS 012300


METAR WAHS 012300Z VRB02KT 6000 FEW013CB FEW014 25/22 Q1009=

SAID33 WAHS 012230


METAR WAHS 012230Z 00000KT 6000 FEW013CB FEW014 25/22 Q1009 NOSIG=

SAID33 WAHS 012200


METAR WAHS 012200Z VRB02KT 6000 FEW013CB FEW014 25/22 Q1008=

SAID31 WARR 020030


METAR WARR 020030Z 28004KT 230V330 2500 BR FEW020 27/25 Q1009 NOSIG=

SAID31 WARR 020000


METAR WARR 020000Z 26004KT 2000 BR FEW020 26/25 Q1009 NOSIG=

SAID31 WARR 012330


METAR WARR 012330Z 30003KT 240V360 1500 BR FEW020 26/25 Q1009 NOSIG=

SAID31 WARR 012300


METAR WARR 012300Z 29003KT 250V340 1500 BR FEW020 25/24 Q1008 NOSIG=

SAID31 WARR 012230


METAR WARR 012230Z VRB02KT 2500 BR FEW020 25/24 Q1008 NOSIG=

SAID31 WARR 012200 RRA


METAR WARR 012200Z 27002KT 2500 BR 25/24 Q1008 NOSIG=
FTID33 WAHS 012300
TAF WAHS 012300Z 0200/0224 20003KT 7000 SCT014 BECMG 0201/0203 33010KT
TEMPO 0210/0213 4000 TSRA FEW013CB BKN014 BECMG 0214/0216 22004KT=

FTID33 WAHS 011700


TAF WAHS 011700Z 0118/0218 24003KT 7000 SCT014 BECMG 0201/0203 33008KT
TEMPO 0210/0214 25005KT 4000 TSRA FEW013CB BKN014 BECMG 0214/0216 23004KT=

FTID33 WAHS 011100


TAF WAHS 011100Z 0112/0212 31007KT 7000 SCT014 TEMPO 0115/0118 25005KT
5000 -TSRA FEW013CB BKN014 BECMG 0113/0115 00000KT BECMG 0201/0203 33008KT
TEMPO 0210/0212 25005KT 4000 TSRA FEW013CB BKN014=

FTID33 WAHS 010500


TAF WAHS 010500Z 0106/0206 32010KT 7000 FEW013CB SCT014 TEMPO 0109/0113
25008KT 4000 TSRA FEW012CB BKN013 BECMG 0113/0115 00000KT BECMG 0201/0203
35008KT=

FTID31 WARR 012239


TAF WARR 012300Z 0200/0224 27005KT 4000 HZ FEW020 BECMG 0200/0202 06010KT
9999 NSW SCT020 TEMPO 0206/0210 34015KT 3000 TSRA SCT018CB BECMG 0215/0217
27005KT 6000 FEW020 TEMPO 0221/0224 4000 HZ=

FTID31 WARR 011655


TAF WARR 011700Z 0118/0218 27005KT 4000 HZ FEW020 BECMG 0200/0202 06010KT
9999 NSW SCT020 TEMPO 0206/0210 34015KT 3000 TSRA SCT018CB BECMG 0215/0217
27005KT 6000 FEW020=

FTID31 WARR 011100


TAF WARR 011100Z 0112/0212 28008KT 8000 FEW020 BECMG 0117/0119 4000 HZ
BECMG 0200/0202 06010KT 9999 NSW TEMPO 0206/0210 34015KT 3000 TSRA
SCT018CB=

FTID31 WARR 010500


TAF WARR 010500Z 0106/0206 32010KT 8000 SCT020 TEMPO 0106/0109 02012KT
5000 TSRA SCT018CB BECMG 0110/0112 04008KT FEW020 BECMG 0116/0118 28005KT
4000 HZ BECMG 0200/0202 06008KT 8000 NSW=

FTID31 WARR 012235


TAF WART 012300Z 0200/0212 28005KT 5000 HZ RA BKN020 BECMG 0200/0202
30010KT 9999 NSW SCT020 PROB40 TEMPO 0209/0212 5000 -TSRA SCT018CB=